createdAt,value
2019-05-17T00:00:09.120Z,7.27
2019-05-17T00:02:37.721Z,8.07
2019-05-17T00:05:07.958Z,8.20
2019-05-17T00:07:36.851Z,8.00
2019-05-17T00:10:06.918Z,8.53
2019-05-17T00:12:36.828Z,8.53
2019-05-17T00:15:11.514Z,7.73
2019-05-17T00:17:40.739Z,8.03
2019-05-17T00:20:09.328Z,8.03
2019-05-17T00:22:37.690Z,7.80
2019-05-17T00:25:10.187Z,8.50
2019-05-17T00:27:38.537Z,8.00
2019-05-17T00:30:08.189Z,8.67
2019-05-17T00:32:37.050Z,9.03
2019-05-17T00:35:07.337Z,8.03
2019-05-17T00:37:37.209Z,7.80
2019-05-17T00:40:07.850Z,7.63
2019-05-17T00:42:37.202Z,10.67
2019-05-17T00:45:09.299Z,7.80
2019-05-17T00:47:37.735Z,8.97
2019-05-17T00:50:07.701Z,9.03
2019-05-17T00:52:36.875Z,9.03
2019-05-17T00:55:08.884Z,9.03
2019-05-17T00:57:37.225Z,9.73
2019-05-17T01:00:08.546Z,9.67
2019-05-17T01:02:36.630Z,10.43
2019-05-17T01:05:08.380Z,10.40
2019-05-17T01:07:37.695Z,9.43
2019-05-17T01:10:07.780Z,9.80
2019-05-17T01:12:37.061Z,9.63
2019-05-17T01:15:07.832Z,9.10
2019-05-17T01:17:36.655Z,9.40
2019-05-17T01:20:11.294Z,9.70
2019-05-17T01:22:39.562Z,10.50
2019-05-17T01:25:10.043Z,9.70
2019-05-17T01:27:38.391Z,10.27
2019-05-17T01:30:07.576Z,9.20
2019-05-17T01:32:37.421Z,9.40
2019-05-17T01:35:07.629Z,13.20
2019-05-17T01:37:36.983Z,13.20
2019-05-17T01:40:06.899Z,10.10
2019-05-17T01:42:37.392Z,9.67
2019-05-17T01:45:08.544Z,9.20
2019-05-17T01:47:37.062Z,9.57
2019-05-17T01:50:07.178Z,10.83
2019-05-17T01:52:36.975Z,9.60
2019-05-17T01:55:07.692Z,10.40
2019-05-17T01:57:37.039Z,10.67
2019-05-17T02:00:08.886Z,9.93
2019-05-17T02:02:38.869Z,10.50
2019-05-17T02:05:08.135Z,10.50
2019-05-17T02:07:37.279Z,11.67
2019-05-17T02:10:09.007Z,10.33
2019-05-17T02:12:37.412Z,11.57
2019-05-17T02:15:08.408Z,10.87
2019-05-17T02:17:37.678Z,11.47
2019-05-17T02:20:07.704Z,11.50
2019-05-17T02:22:36.740Z,10.93
2019-05-17T02:25:11.355Z,10.90
2019-05-17T02:27:41.921Z,13.00
2019-05-17T02:30:14.186Z,9.90
2019-05-17T02:32:43.284Z,11.37
2019-05-17T02:35:14.477Z,11.03
2019-05-17T02:37:43.400Z,12.30
2019-05-17T02:40:14.692Z,11.63
2019-05-17T02:42:43.273Z,11.83
2019-05-17T02:45:13.894Z,11.83
2019-05-17T02:47:43.569Z,11.20
2019-05-17T02:50:13.710Z,12.20
2019-05-17T02:52:43.723Z,14.97
2019-05-17T02:55:13.475Z,14.80
2019-05-17T02:57:43.353Z,12.03
2019-05-17T03:00:14.224Z,11.40
2019-05-17T03:02:43.908Z,11.80
2019-05-17T03:05:14.114Z,12.40
2019-05-17T03:07:43.933Z,12.20
2019-05-17T03:10:22.660Z,13.10
2019-05-17T03:12:44.461Z,12.80
2019-05-17T03:15:13.463Z,11.87
2019-05-17T03:17:43.332Z,18.40
2019-05-17T03:20:13.487Z,12.30
2019-05-17T03:22:43.875Z,12.87
2019-05-17T03:25:13.947Z,11.70
2019-05-17T03:27:43.069Z,12.43
2019-05-17T03:30:17.239Z,12.20
2019-05-17T03:32:47.815Z,12.47
2019-05-17T03:35:16.865Z,13.20
2019-05-17T03:37:44.024Z,12.50
2019-05-17T03:40:30.572Z,11.67
2019-05-17T03:42:44.938Z,11.80
2019-05-17T03:45:14.080Z,11.53
2019-05-17T03:47:44.350Z,11.60
2019-05-17T03:50:13.905Z,12.47
2019-05-17T03:52:44.351Z,12.10
2019-05-17T03:55:13.285Z,12.07
2019-05-17T03:57:44.246Z,10.43
2019-05-17T04:00:13.340Z,10.60
2019-05-17T04:02:44.287Z,11.30
2019-05-17T04:05:12.849Z,11.57
2019-05-17T04:07:43.474Z,11.07
2019-05-17T04:10:15.130Z,10.47
2019-05-17T04:12:44.162Z,11.20
2019-05-17T04:15:15.179Z,10.90
2019-05-17T04:17:44.319Z,10.67
2019-05-17T04:20:14.056Z,11.23
2019-05-17T04:22:44.318Z,9.93
2019-05-17T04:25:13.724Z,10.43
2019-05-17T04:27:43.542Z,11.10
2019-05-17T04:30:14.172Z,10.17
2019-05-17T04:32:44.399Z,10.40
2019-05-17T04:35:13.511Z,10.77
2019-05-17T04:37:44.510Z,12.00
2019-05-17T04:40:14.172Z,9.13
2019-05-17T04:42:43.817Z,10.20
2019-05-17T04:45:13.602Z,10.57
2019-05-17T04:47:44.144Z,10.23
2019-05-17T04:50:13.884Z,11.87
2019-05-17T04:52:43.116Z,10.50
2019-05-17T04:55:13.230Z,10.57
2019-05-17T04:57:43.846Z,10.47
2019-05-17T05:00:13.223Z,11.50
2019-05-17T05:02:44.602Z,11.20
2019-05-17T05:05:13.977Z,10.57
2019-05-17T05:07:43.410Z,11.10
2019-05-17T05:10:13.654Z,11.73
2019-05-17T05:12:43.546Z,12.03
2019-05-17T05:15:13.011Z,12.40
2019-05-17T05:17:42.529Z,12.20
2019-05-17T05:20:13.154Z,13.03
2019-05-17T05:22:42.728Z,12.53
2019-05-17T05:25:12.410Z,12.80
2019-05-17T05:27:42.759Z,13.00
2019-05-17T05:30:12.064Z,14.87
2019-05-17T05:32:42.565Z,13.13
2019-05-17T05:35:12.292Z,14.07
2019-05-17T05:37:42.333Z,13.43
2019-05-17T05:40:12.731Z,13.50
2019-05-17T05:42:42.606Z,13.20
2019-05-17T05:45:12.513Z,17.80
2019-05-17T05:47:44.004Z,14.70
2019-05-17T05:50:13.587Z,14.90
2019-05-17T05:52:42.501Z,13.90
2019-05-17T05:55:12.226Z,13.50
2019-05-17T05:57:42.873Z,15.33
2019-05-17T06:00:13.631Z,14.70
2019-05-17T06:02:42.278Z,14.93
2019-05-17T06:05:14.819Z,14.87
2019-05-17T06:07:41.662Z,14.77
2019-05-17T06:10:13.163Z,17.60
2019-05-17T06:12:43.455Z,16.33
2019-05-17T06:15:12.555Z,16.87
2019-05-17T06:17:42.763Z,17.87
2019-05-17T06:20:11.866Z,18.23
2019-05-17T06:22:42.496Z,17.67
2019-05-17T06:25:14.607Z,17.50
2019-05-17T06:27:41.500Z,16.87
2019-05-17T06:30:12.671Z,18.10
2019-05-17T06:32:43.393Z,16.40
2019-05-17T06:35:12.623Z,17.83
2019-05-17T06:37:42.369Z,18.37
2019-05-17T06:40:12.993Z,17.37
2019-05-17T06:42:45.126Z,18.07
2019-05-17T06:45:12.502Z,19.70
2019-05-17T06:47:42.651Z,17.87
2019-05-17T06:50:14.393Z,17.23
2019-05-17T06:52:43.877Z,17.57
2019-05-17T06:55:13.566Z,16.17
2019-05-17T06:57:43.112Z,18.53
2019-05-17T07:00:19.795Z,19.90
2019-05-17T07:02:42.770Z,18.77
2019-05-17T07:05:12.761Z,19.87
2019-05-17T07:07:41.199Z,18.77
2019-05-17T07:10:11.176Z,17.23
2019-05-17T07:12:54.421Z,19.27
2019-05-17T07:15:10.968Z,18.73
2019-05-17T07:17:40.091Z,17.47
2019-05-17T07:20:10.405Z,18.70
2019-05-17T07:22:40.707Z,19.20
2019-05-17T07:25:11.265Z,19.77
2019-05-17T07:27:44.795Z,19.77
2019-05-17T07:30:10.247Z,19.10
2019-05-17T07:32:40.571Z,20.53
2019-05-17T07:35:10.641Z,19.23
2019-05-17T07:37:39.773Z,17.60
2019-05-17T07:40:10.958Z,16.87
2019-05-17T07:42:40.056Z,19.53
2019-05-17T07:45:10.039Z,20.03
2019-05-17T07:47:40.438Z,19.13
2019-05-17T07:50:11.141Z,19.17
2019-05-17T07:52:39.903Z,19.50
2019-05-17T07:55:10.813Z,19.50
2019-05-17T07:57:40.949Z,18.20
2019-05-17T08:00:10.374Z,18.50
2019-05-17T08:02:40.196Z,18.60
2019-05-17T08:05:10.047Z,19.23
2019-05-17T08:07:40.510Z,19.10
2019-05-17T08:10:10.889Z,18.87
2019-05-17T08:12:40.527Z,19.60
2019-05-17T08:15:11.112Z,19.03
2019-05-17T08:17:39.828Z,19.07
2019-05-17T08:20:10.307Z,19.97
2019-05-17T08:22:39.819Z,19.07
2019-05-17T08:25:10.158Z,18.23
2019-05-17T08:27:40.445Z,19.23
2019-05-17T08:30:11.680Z,18.27
2019-05-17T08:32:40.934Z,19.60
2019-05-17T08:35:11.358Z,19.57
2019-05-17T08:37:42.423Z,17.73
2019-05-17T08:40:10.854Z,17.83
2019-05-17T08:42:40.581Z,16.60
2019-05-17T08:45:09.810Z,17.03
2019-05-17T08:47:39.597Z,17.27
2019-05-17T08:50:11.482Z,16.73
2019-05-17T08:52:40.397Z,16.73
2019-05-17T08:55:09.657Z,15.90
2019-05-17T08:57:40.059Z,18.10
2019-05-17T09:00:31.380Z,16.90
2019-05-17T09:03:00.060Z,17.27
2019-05-17T09:05:30.291Z,16.47
2019-05-17T09:08:03.863Z,16.73
2019-05-17T09:10:32.259Z,15.50
2019-05-17T09:13:00.570Z,16.57
2019-05-17T09:15:32.062Z,15.17
2019-05-17T09:18:02.138Z,15.60
2019-05-17T09:20:31.523Z,15.10
2019-05-17T09:23:00.814Z,15.53
2019-05-17T09:25:30.283Z,15.40
2019-05-17T09:28:00.720Z,14.40
2019-05-17T09:30:31.421Z,14.13
2019-05-17T09:33:00.311Z,13.53
2019-05-17T09:35:30.039Z,13.10
2019-05-17T09:38:00.484Z,11.80
2019-05-17T09:40:29.286Z,10.37
2019-05-17T09:42:58.323Z,11.30
2019-05-17T09:45:30.465Z,11.70
2019-05-17T09:48:00.517Z,11.97
2019-05-17T09:50:29.401Z,12.77
2019-05-17T09:52:59.892Z,13.13
2019-05-17T09:55:30.046Z,11.73
2019-05-17T09:58:00.090Z,10.53
2019-05-17T10:00:29.700Z,13.07
2019-05-17T10:03:00.083Z,11.73
2019-05-17T10:05:31.084Z,10.93
2019-05-17T10:07:59.992Z,11.10
2019-05-17T10:10:28.339Z,10.50
2019-05-17T10:12:56.599Z,10.60
2019-05-17T10:15:24.899Z,10.40
2019-05-17T10:17:53.172Z,10.47
2019-05-17T10:20:21.453Z,10.37
2019-05-17T10:22:50.361Z,9.67
2019-05-17T10:25:20.074Z,10.27
2019-05-17T10:27:49.807Z,10.30
2019-05-17T10:30:20.869Z,9.70
2019-05-17T10:32:50.527Z,9.70
2019-05-17T10:35:19.934Z,9.60
2019-05-17T10:37:50.595Z,10.20
2019-05-17T10:40:20.760Z,9.80
2019-05-17T10:42:50.006Z,10.33
2019-05-17T10:45:19.809Z,10.33
2019-05-17T10:47:50.253Z,9.90
2019-05-17T10:50:26.280Z,9.00
2019-05-17T10:53:09.758Z,9.13
2019-05-17T10:55:39.485Z,10.67
2019-05-17T10:58:09.681Z,9.90
2019-05-17T11:00:37.349Z,9.50
2019-05-17T11:03:05.696Z,8.00
2019-05-17T11:05:34.077Z,9.23
2019-05-17T11:08:02.343Z,8.00
2019-05-17T11:10:36.524Z,9.00
2019-05-17T11:13:04.830Z,7.43
2019-05-17T11:15:33.133Z,7.07
2019-05-17T11:18:01.483Z,7.33
2019-05-17T11:20:29.908Z,7.20
2019-05-17T11:22:58.188Z,8.27
2019-05-17T11:25:28.457Z,8.57
2019-05-17T11:27:56.733Z,9.00
2019-05-17T11:30:25.029Z,7.90
2019-05-17T11:32:53.290Z,8.30
2019-05-17T11:35:24.720Z,7.70
2019-05-17T11:37:52.577Z,7.70
2019-05-17T11:40:22.136Z,6.80
2019-05-17T11:42:50.521Z,8.93
2019-05-17T11:45:27.349Z,7.90
2019-05-17T11:47:48.880Z,7.43
2019-05-17T11:50:17.443Z,8.00
2019-05-17T11:52:45.724Z,6.90
2019-05-17T11:55:14.434Z,7.40
2019-05-17T11:57:42.725Z,6.60
2019-05-17T12:00:12.574Z,8.30
2019-05-17T12:02:40.852Z,7.33
2019-05-17T12:05:09.270Z,7.83
2019-05-17T12:07:37.572Z,7.20
2019-05-17T12:10:07.407Z,7.27
2019-05-17T12:12:35.743Z,6.27
2019-05-17T12:15:05.612Z,6.00
2019-05-17T12:17:33.961Z,7.63
2019-05-17T12:20:02.304Z,6.67
2019-05-17T12:22:30.594Z,6.50
2019-05-17T12:24:58.869Z,5.60
2019-05-17T12:27:27.144Z,5.90
2019-05-17T12:29:55.492Z,6.03
2019-05-17T12:32:23.819Z,7.07
2019-05-17T12:34:52.100Z,7.30
2019-05-17T12:37:20.366Z,6.27
2019-05-17T12:39:48.647Z,6.60
2019-05-17T12:42:17.945Z,7.20
2019-05-17T12:44:46.214Z,7.90
2019-05-17T12:47:14.508Z,7.90
2019-05-17T12:49:43.819Z,7.90
2019-05-17T12:52:12.115Z,7.30
2019-05-17T12:54:40.387Z,6.63
2019-05-17T12:57:08.642Z,6.73
2019-05-17T12:59:36.920Z,6.53
2019-05-17T13:02:05.187Z,6.20
2019-05-17T13:04:33.473Z,6.43
2019-05-17T13:07:01.736Z,6.57
2019-05-17T13:09:30.050Z,6.40
2019-05-17T13:11:58.316Z,6.20
2019-05-17T13:14:27.648Z,6.73
2019-05-17T13:16:55.906Z,6.10
2019-05-17T13:19:25.362Z,6.63
2019-05-17T13:21:53.936Z,6.87
2019-05-17T13:24:23.173Z,6.73
2019-05-17T13:26:51.481Z,6.40
2019-05-17T13:29:19.773Z,6.37
2019-05-17T13:31:48.092Z,6.33
2019-05-17T13:34:16.336Z,7.30
2019-05-17T13:36:44.621Z,6.87
2019-05-17T13:39:12.906Z,8.67
2019-05-17T13:41:41.185Z,8.40
2019-05-17T13:44:09.439Z,6.30
2019-05-17T13:46:37.743Z,6.50
2019-05-17T13:49:06.004Z,5.93
2019-05-17T13:51:34.257Z,6.73
2019-05-17T13:54:03.541Z,6.23
2019-05-17T13:56:31.804Z,7.20
2019-05-17T13:59:00.067Z,6.37
2019-05-17T14:01:28.359Z,6.73
2019-05-17T14:03:56.634Z,6.50
2019-05-17T14:06:24.940Z,6.70
2019-05-17T14:08:53.201Z,5.00
2019-05-17T14:11:21.477Z,6.53
2019-05-17T14:13:49.763Z,5.60
2019-05-17T14:16:18.034Z,5.90
2019-05-17T14:18:46.311Z,5.60
2019-05-17T14:21:14.648Z,6.25
2019-05-17T14:23:42.936Z,6.10
2019-05-17T14:26:12.161Z,5.50
2019-05-17T14:28:40.438Z,5.70
2019-05-17T14:31:08.711Z,6.78
2019-05-17T14:33:37.232Z,5.42
2019-05-17T14:36:05.512Z,5.40
2019-05-17T14:38:33.806Z,5.47
2019-05-17T14:41:07.223Z,5.63
2019-05-17T14:43:33.049Z,6.30
2019-05-17T14:46:01.340Z,6.10
2019-05-17T14:48:29.614Z,5.60
2019-05-17T14:50:58.018Z,5.70
2019-05-17T14:53:26.290Z,5.20
2019-05-17T14:55:54.567Z,5.37
2019-05-17T14:58:22.848Z,5.60
2019-05-17T15:00:51.108Z,5.83
2019-05-17T15:03:20.389Z,5.13
2019-05-17T15:05:48.734Z,4.50
2019-05-17T15:08:17.015Z,5.67
2019-05-17T15:10:45.292Z,5.30
2019-05-17T15:13:13.576Z,5.40
2019-05-17T15:15:41.851Z,4.90
2019-05-17T15:18:10.345Z,5.00
2019-05-17T15:20:38.606Z,4.83
2019-05-17T15:23:08.543Z,5.60
2019-05-17T15:25:36.823Z,4.90
2019-05-17T15:28:05.171Z,4.70
2019-05-17T15:30:33.596Z,5.10
2019-05-17T15:33:02.146Z,5.13
2019-05-17T15:35:30.544Z,5.40
2019-05-17T15:37:58.847Z,5.33
2019-05-17T15:40:28.107Z,6.00
2019-05-17T15:42:56.348Z,5.63
2019-05-17T15:45:24.612Z,5.10
2019-05-17T15:47:53.095Z,4.80
2019-05-17T15:50:21.519Z,5.13
2019-05-17T15:52:49.856Z,4.60
2019-05-17T15:55:19.393Z,4.67
2019-05-17T15:57:48.737Z,5.20
2019-05-17T16:00:17.373Z,4.50
2019-05-17T16:02:45.721Z,4.90
2019-05-17T16:05:14.061Z,5.40
2019-05-17T16:07:42.310Z,4.93
2019-05-17T16:10:11.012Z,6.10
2019-05-17T16:12:39.275Z,5.03
2019-05-17T16:15:08.014Z,5.00
2019-05-17T16:17:36.307Z,5.00
2019-05-17T16:20:06.290Z,5.17
2019-05-17T16:22:35.406Z,5.60
2019-05-17T16:25:08.354Z,5.80
2019-05-17T16:27:37.697Z,4.70
2019-05-17T16:30:09.739Z,4.60
2019-05-17T16:32:37.996Z,4.90
2019-05-17T16:35:06.417Z,5.70
2019-05-17T16:37:34.696Z,4.70
2019-05-17T16:40:05.438Z,5.37
2019-05-17T16:42:33.721Z,5.53
2019-05-17T16:45:02.233Z,5.27
2019-05-17T16:47:30.749Z,5.23
2019-05-17T16:49:59.043Z,5.43
2019-05-17T16:52:27.296Z,5.27
2019-05-17T16:54:55.564Z,4.90
2019-05-17T16:57:23.836Z,5.10
2019-05-17T16:59:53.166Z,6.10
2019-05-17T17:02:21.440Z,5.30
2019-05-17T17:04:49.718Z,5.03
2019-05-17T17:07:17.994Z,5.50
2019-05-17T17:09:46.441Z,8.57
2019-05-17T17:12:15.700Z,4.60
2019-05-17T17:14:43.964Z,5.43
2019-05-17T17:17:13.319Z,6.17
2019-05-17T17:19:42.178Z,6.57
2019-05-17T17:22:10.455Z,5.43
2019-05-17T17:24:38.750Z,6.30
2019-05-17T17:27:07.050Z,4.30
2019-05-17T17:29:36.296Z,4.60
2019-05-17T17:32:04.590Z,10.10
2019-05-17T17:34:32.860Z,19.50
2019-05-17T17:37:01.153Z,4.90
2019-05-17T17:39:29.413Z,5.00
2019-05-17T17:41:57.823Z,5.17
2019-05-17T17:44:26.173Z,6.90
2019-05-17T17:46:54.471Z,4.23
2019-05-17T17:49:23.745Z,4.10
2019-05-17T17:51:52.061Z,5.20
2019-05-17T17:54:20.323Z,4.80
2019-05-17T17:56:48.624Z,5.40
2019-05-17T17:59:16.977Z,4.13
2019-05-17T18:01:45.372Z,17.10
2019-05-17T18:04:14.646Z,5.60
2019-05-17T18:06:43.022Z,4.50
2019-05-17T18:09:12.255Z,4.10
2019-05-17T18:11:40.523Z,5.30
2019-05-17T18:14:13.382Z,3.83
2019-05-17T18:16:38.906Z,4.00
2019-05-17T18:19:07.175Z,4.50
2019-05-17T18:21:35.543Z,4.50
2019-05-17T18:24:03.873Z,5.43
2019-05-17T18:26:32.236Z,3.47
2019-05-17T18:29:00.518Z,4.13
2019-05-17T18:31:28.773Z,4.50
2019-05-17T18:33:57.120Z,4.53
2019-05-17T18:36:25.488Z,4.73
2019-05-17T18:38:58.082Z,3.90
2019-05-17T18:41:26.386Z,4.00
2019-05-17T18:43:54.651Z,3.60
2019-05-17T18:46:23.042Z,4.17
2019-05-17T18:48:51.388Z,4.33
2019-05-17T18:51:24.551Z,3.87
2019-05-17T18:53:56.214Z,4.27
2019-05-17T18:56:24.450Z,3.80
2019-05-17T18:58:52.760Z,4.60
2019-05-17T19:01:21.019Z,3.73
2019-05-17T19:03:49.315Z,3.47
2019-05-17T19:06:18.665Z,3.97
2019-05-17T19:08:46.934Z,4.60
2019-05-17T19:11:15.353Z,3.60
2019-05-17T19:13:46.340Z,3.73
2019-05-17T19:16:14.619Z,3.87
2019-05-17T19:18:43.876Z,3.60
2019-05-17T19:21:12.140Z,4.20
2019-05-17T19:23:40.422Z,5.97
2019-05-17T19:26:08.748Z,5.90
2019-05-17T19:28:37.031Z,4.47
2019-05-17T19:31:05.296Z,4.37
2019-05-17T19:33:34.525Z,3.93
2019-05-17T19:36:02.875Z,4.03
2019-05-17T19:38:31.130Z,4.50
2019-05-17T19:40:59.407Z,7.90
2019-05-17T19:43:27.666Z,3.73
2019-05-17T19:45:55.986Z,7.90
2019-05-17T19:48:24.286Z,3.90
2019-05-17T19:50:53.508Z,4.37
2019-05-17T19:53:21.809Z,3.63
2019-05-17T19:55:50.144Z,10.20
2019-05-17T19:58:18.434Z,4.03
2019-05-17T20:00:46.788Z,4.13
2019-05-17T20:03:15.109Z,3.40
2019-05-17T20:05:43.423Z,4.30
2019-05-17T20:08:11.692Z,2.90
2019-05-17T20:10:40.104Z,3.70
2019-05-17T20:13:08.427Z,3.10
2019-05-17T20:15:36.771Z,2.80
2019-05-17T20:18:05.090Z,4.03
2019-05-17T20:20:33.470Z,2.73
2019-05-17T20:23:01.799Z,3.03
2019-05-17T20:25:30.082Z,2.60
2019-05-17T20:27:59.308Z,2.40
2019-05-17T20:30:27.585Z,2.20
2019-05-17T20:32:55.872Z,2.67
2019-05-17T20:35:24.169Z,8.30
2019-05-17T20:37:53.432Z,15.70
2019-05-17T20:40:21.832Z,3.43
2019-05-17T20:42:50.195Z,3.80
2019-05-17T20:45:32.137Z,3.10
2019-05-17T20:47:49.631Z,3.43
2019-05-17T20:50:17.900Z,2.60
2019-05-17T20:52:48.265Z,2.40
2019-05-17T20:55:16.809Z,2.40
2019-05-17T20:57:45.180Z,2.57
2019-05-17T21:00:15.113Z,2.90
2019-05-17T21:02:43.390Z,2.27
2019-05-17T21:05:14.840Z,2.50
2019-05-17T21:07:43.265Z,3.07
2019-05-17T21:10:12.509Z,2.87
2019-05-17T21:12:41.810Z,2.47
2019-05-17T21:15:10.569Z,4.10
2019-05-17T21:17:38.855Z,14.00
2019-05-17T21:20:08.677Z,18.83
2019-05-17T21:22:36.994Z,3.03
2019-05-17T21:25:06.401Z,2.40
2019-05-17T21:27:35.775Z,2.70
2019-05-17T21:30:04.913Z,2.50
2019-05-17T21:32:33.201Z,3.10
2019-05-17T21:35:01.464Z,3.03
2019-05-17T21:37:29.779Z,2.70
2019-05-17T21:39:58.057Z,2.97
2019-05-17T21:42:26.335Z,3.10
2019-05-17T21:44:54.604Z,3.00
2019-05-17T21:47:22.884Z,3.43
2019-05-17T21:49:52.159Z,3.00
2019-05-17T21:52:21.206Z,2.80
2019-05-17T21:54:49.600Z,3.63
2019-05-17T21:57:17.963Z,3.30
2019-05-17T21:59:46.262Z,3.47
2019-05-17T22:02:14.531Z,3.30
2019-05-17T22:04:42.865Z,3.43
2019-05-17T22:07:11.139Z,2.93
2019-05-17T22:09:39.417Z,3.20
2019-05-17T22:12:14.635Z,2.90
2019-05-17T22:14:42.967Z,3.40
2019-05-17T22:17:11.364Z,2.80
2019-05-17T22:19:39.691Z,2.80
2019-05-17T22:22:08.001Z,2.63
2019-05-17T22:24:36.274Z,2.90
2019-05-17T22:27:04.627Z,2.90
2019-05-17T22:29:32.939Z,5.53
2019-05-17T22:32:01.308Z,8.17
2019-05-17T22:34:29.589Z,2.70
2019-05-17T22:36:57.873Z,2.80
2019-05-17T22:39:28.410Z,3.30
2019-05-17T22:41:56.785Z,2.93
2019-05-17T22:44:26.072Z,2.80
2019-05-17T22:46:54.743Z,3.00
2019-05-17T22:49:23.132Z,2.80
2019-05-17T22:51:51.460Z,2.60
2019-05-17T22:54:21.781Z,2.80
2019-05-17T22:56:50.119Z,2.90
2019-05-17T22:59:18.377Z,3.13
2019-05-17T23:01:46.645Z,2.80
2019-05-17T23:04:14.905Z,4.07
2019-05-17T23:06:43.170Z,3.77
2019-05-17T23:09:12.448Z,3.83
2019-05-17T23:11:40.718Z,3.53
2019-05-17T23:14:09.001Z,3.93
2019-05-17T23:16:50.527Z,4.70
2019-05-17T23:19:08.900Z,3.23
2019-05-17T23:21:38.439Z,3.07
2019-05-17T23:24:07.327Z,3.53
2019-05-17T23:26:35.610Z,2.73
2019-05-17T23:29:03.953Z,7.90
2019-05-17T23:31:32.259Z,3.77
2019-05-17T23:34:00.566Z,3.50
2019-05-17T23:36:28.860Z,4.00
2019-05-17T23:38:57.224Z,3.33
2019-05-17T23:41:25.489Z,2.97
2019-05-17T23:43:53.764Z,3.73
2019-05-17T23:46:23.068Z,3.70
2019-05-17T23:48:51.326Z,4.63
2019-05-17T23:51:19.626Z,5.83
2019-05-17T23:53:48.928Z,6.33
2019-05-17T23:56:17.210Z,5.20
2019-05-17T23:58:45.459Z,5.03
